Time;durP1;ratioP1;P1;durP2;ratioP2;P2;SDS_P1;SDS_P2;PMS_P1;PMS_P2;Temp;Humidity;BMP_temperature;BMP_pressure;BME280_temperature;BME280_humidity;BME280_pressure;Samples;Min_cycle;Max_cycle;Signal;HPM_P1;HPM_P2
2022/06/15 00:01:21;;;;;;;2.33;1.80;;;20.40;80.40;;;;;;5085587;28;20458;-62
2022/06/15 00:04:02;;;;;;;2.50;1.60;;;20.40;81.70;;;;;;5085840;28;20893;-62
2022/06/15 00:06:39;;;;;;;1.57;1.33;;;20.70;82.50;;;;;;5085473;28;20496;-61
2022/06/15 00:09:13;;;;;;;1.70;1.60;;;20.90;81.10;;;;;;5085635;28;20455;-61
2022/06/15 00:11:46;;;;;;;2.50;1.77;;;21.00;77.00;;;;;;5082393;28;20478;-62
2022/06/15 00:14:20;;;;;;;1.83;1.57;;;21.10;75.70;;;;;;5085264;28;20439;-61
2022/06/15 00:16:51;;;;;;;3.90;1.60;;;20.80;77.60;;;;;;5084832;28;20455;-62
2022/06/15 00:19:26;;;;;;;1.97;1.83;;;20.90;80.80;;;;;;5083875;28;20493;-62
2022/06/15 00:21:56;;;;;;;3.20;1.93;;;20.90;77.30;;;;;;5083144;28;20444;-62
2022/06/15 00:24:29;;;;;;;2.20;2.00;;;20.60;79.20;;;;;;5085100;28;20615;-62
2022/06/15 00:27:03;;;;;;;2.13;1.63;;;20.60;78.30;;;;;;5086302;28;20451;-63
2022/06/15 00:29:37;;;;;;;1.40;1.30;;;20.80;78.10;;;;;;5079560;28;20455;-62
2022/06/15 00:32:09;;;;;;;1.93;1.80;;;20.60;82.80;;;;;;5083591;28;20490;-62
2022/06/15 00:34:41;;;;;;;2.63;1.80;;;20.70;78.60;;;;;;5083476;28;20535;-62
2022/06/15 00:37:12;;;;;;;1.63;1.33;;;20.70;75.30;;;;;;5084311;28;20508;-62
2022/06/15 00:39:42;;;;;;;3.23;1.30;;;20.50;80.40;;;;;;5083938;28;20453;-62
2022/06/15 00:42:20;;;;;;;2.60;2.33;;;20.50;79.90;;;;;;5081828;28;20530;-62
2022/06/15 00:44:51;;;;;;;1.57;1.40;;;20.50;83.10;;;;;;5084184;28;20463;-62
2022/06/15 00:47:25;;;;;;;3.70;2.07;;;20.40;81.40;;;;;;5083828;28;20479;-62
2022/06/15 00:49:59;;;;;;;2.57;2.03;;;20.60;81.70;;;;;;5082728;28;20473;-62
2022/06/15 00:52:35;;;;;;;2.00;1.57;;;20.40;84.70;;;;;;5075875;28;20597;-62
2022/06/15 00:55:13;;;;;;;2.43;1.87;;;20.30;84.60;;;;;;5079032;28;20458;-62
2022/06/15 00:57:45;;;;;;;2.80;2.27;;;20.30;81.60;;;;;;5078269;28;20935;-62
2022/06/15 01:00:17;;;;;;;2.97;2.40;;;20.20;85.60;;;;;;5082071;28;20482;-62
2022/06/15 01:02:48;;;;;;;3.13;1.93;;;20.20;85.90;;;;;;5080707;28;20508;-62
2022/06/15 01:05:22;;;;;;;8.90;5.10;;;20.20;84.00;;;;;;5080741;28;20505;-61
2022/06/15 01:08:21;;;;;;;7.23;5.30;;;20.00;85.00;;;;;;5076942;28;20441;-62
2022/06/15 01:11:03;;;;;;;3.30;2.63;;;19.90;87.50;;;;;;5076069;28;20434;-62
2022/06/15 01:13:57;;;;;;;3.00;2.70;;;20.00;88.30;;;;;;5079761;28;20592;-62
2022/06/15 01:16:37;;;;;;;2.10;1.27;;;20.10;85.80;;;;;;5081855;28;20525;-61
2022/06/15 01:19:26;;;;;;;1.70;1.40;;;20.20;85.10;;;;;;5081765;28;20490;-61
2022/06/15 01:22:05;;;;;;;2.23;1.77;;;20.10;83.70;;;;;;5078848;28;20493;-61
2022/06/15 01:25:06;;;;;;;2.37;2.17;;;19.90;85.50;;;;;;5082164;28;20478;-62
2022/06/15 01:28:07;;;;;;;2.10;1.83;;;19.80;84.00;;;;;;5080864;28;20452;-61
2022/06/15 01:30:47;;;;;;;2.60;2.03;;;19.70;84.40;;;;;;5082740;28;20477;-61
2022/06/15 01:33:28;;;;;;;2.20;1.83;;;19.50;85.00;;;;;;5082452;28;20469;-62
2022/06/15 01:36:11;;;;;;;1.87;1.67;;;19.30;84.30;;;;;;5080851;28;20449;-62
2022/06/15 01:38:50;;;;;;;2.03;1.70;;;19.10;86.40;;;;;;5080965;28;20461;-62
2022/06/15 01:41:25;;;;;;;2.27;1.67;;;19.00;84.70;;;;;;5058830;28;20947;-63
2022/06/15 01:44:02;;;;;;;2.53;2.10;;;18.90;86.90;;;;;;5081789;28;20432;-63
2022/06/15 01:46:40;;;;;;;1.63;1.50;;;18.60;87.70;;;;;;5082878;28;20509;-63
2022/06/15 01:49:24;;;;;;;1.77;1.67;;;18.60;88.70;;;;;;5083347;28;20538;-63
2022/06/15 01:52:00;;;;;;;2.20;1.60;;;18.60;90.20;;;;;;5081265;28;20580;-63
2022/06/15 01:54:36;;;;;;;1.93;1.50;;;18.60;90.60;;;;;;5083112;28;20492;-63
2022/06/15 01:57:09;;;;;;;1.37;1.27;;;18.70;90.40;;;;;;5070741;28;20483;-63
2022/06/15 01:59:43;;;;;;;2.20;2.00;;;18.60;90.10;;;;;;5082670;28;20445;-62
2022/06/15 02:02:22;;;;;;;1.70;1.60;;;18.50;90.40;;;;;;5082755;28;20530;-63
2022/06/15 02:05:02;;;;;;;1.73;1.40;;;18.30;90.90;;;;;;5082363;28;20825;-62
2022/06/15 02:07:41;;;;;;;1.50;1.40;;;18.30;91.70;;;;;;5082353;28;20418;-64
2022/06/15 02:10:21;;;;;;;2.60;1.73;;;18.30;90.80;;;;;;5078182;28;20441;-64
2022/06/15 02:12:57;;;;;;;4.03;2.07;;;18.30;90.00;;;;;;5082817;28;20458;-63
2022/06/15 02:15:30;;;;;;;1.70;1.40;;;18.10;90.60;;;;;;5083188;28;20455;-63
2022/06/15 02:18:07;;;;;;;1.53;1.33;;;18.10;91.70;;;;;;5082743;28;20498;-62
2022/06/15 02:20:43;;;;;;;2.17;1.60;;;18.20;90.80;;;;;;5083575;28;20549;-62
2022/06/15 02:23:16;;;;;;;1.60;1.50;;;18.10;91.30;;;;;;5082475;28;20461;-62
2022/06/15 02:25:51;;;;;;;1.50;1.40;;;18.00;91.80;;;;;;5081697;28;20452;-63
2022/06/15 02:28:27;;;;;;;1.67;1.57;;;18.10;91.20;;;;;;5082120;28;21272;-62
2022/06/15 02:30:58;;;;;;;3.10;2.00;;;18.20;91.60;;;;;;5074053;28;20480;-63
2022/06/15 02:33:33;;;;;;;1.70;1.23;;;18.30;92.10;;;;;;5080350;28;20573;-62
2022/06/15 02:36:04;;;;;;;1.73;1.53;;;18.30;90.80;;;;;;5083297;28;20480;-61
2022/06/15 02:38:38;;;;;;;2.53;1.33;;;18.40;90.40;;;;;;5078506;28;20434;-63
2022/06/15 02:41:09;;;;;;;1.57;1.37;;;18.30;90.20;;;;;;5079954;28;20444;-64
2022/06/15 02:43:43;;;;;;;1.90;1.23;;;18.30;91.40;;;;;;5067179;28;20429;-64
2022/06/15 02:46:15;;;;;;;2.10;1.60;;;18.20;92.60;;;;;;5080868;28;20841;-65
2022/06/15 02:48:49;;;;;;;1.90;1.50;;;18.30;91.60;;;;;;5080298;28;20446;-62
2022/06/15 02:51:26;;;;;;;2.00;1.30;;;18.20;90.60;;;;;;5073508;28;20936;-64
2022/06/15 02:54:02;;;;;;;2.57;1.50;;;18.00;90.50;;;;;;5080187;28;20495;-64
2022/06/15 02:56:34;;;;;;;1.57;1.43;;;17.90;91.10;;;;;;5067790;28;20411;-63
2022/06/15 02:59:06;;;;;;;1.83;1.57;;;17.80;92.10;;;;;;5081414;28;20452;-63
2022/06/15 03:01:37;;;;;;;2.43;1.40;;;17.70;92.30;;;;;;5078772;28;20886;-63
2022/06/15 03:04:10;;;;;;;1.70;1.40;;;17.70;92.80;;;;;;5079796;28;20497;-64
2022/06/15 03:06:40;;;;;;;2.10;1.70;;;17.60;92.50;;;;;;5079520;28;20811;-65
2022/06/15 03:09:11;;;;;;;1.63;1.53;;;17.50;93.30;;;;;;5078243;28;20542;-64
2022/06/15 03:11:42;;;;;;;1.87;1.53;;;17.40;93.40;;;;;;5072332;28;20445;-65
2022/06/15 03:14:14;;;;;;;1.80;1.47;;;17.30;93.40;;;;;;5082244;28;20930;-65
2022/06/15 03:16:48;;;;;;;2.70;1.90;;;17.30;93.90;;;;;;5081679;28;20455;-65
2022/06/15 03:19:21;;;;;;;2.93;1.73;;;17.20;94.20;;;;;;5081644;28;20537;-65
2022/06/15 03:21:52;;;;;;;2.60;1.50;;;17.10;94.40;;;;;;5081290;28;20434;-65
2022/06/15 03:24:23;;;;;;;2.47;1.80;;;17.10;95.10;;;;;;5076241;28;20804;-64
2022/06/15 03:26:53;;;;;;;2.40;2.20;;;17.00;95.20;;;;;;5079393;28;20897;-63
2022/06/15 03:29:25;;;;;;;1.87;1.57;;;16.90;96.80;;;;;;5080457;28;20470;-65
2022/06/15 03:31:56;;;;;;;1.87;1.67;;;17.00;96.30;;;;;;5081315;28;20426;-65
2022/06/15 03:34:28;;;;;;;1.73;1.60;;;16.90;96.90;;;;;;5081194;28;20487;-66
2022/06/15 03:36:59;;;;;;;1.70;1.60;;;16.90;96.40;;;;;;5081517;28;20482;-64
2022/06/15 03:39:30;;;;;;;1.60;1.40;;;16.80;96.70;;;;;;5079350;28;20434;-65
2022/06/15 03:42:10;;;;;;;2.20;1.77;;;16.80;97.50;;;;;;5078026;28;20434;-65
2022/06/15 03:44:42;;;;;;;1.63;1.40;;;16.80;96.20;;;;;;5080381;28;20465;-64
2022/06/15 03:47:13;;;;;;;2.83;1.50;;;16.70;96.00;;;;;;5075178;28;20442;-66
2022/06/15 03:49:47;;;;;;;1.23;1.10;;;16.70;95.10;;;;;;5081199;28;20473;-65
2022/06/15 03:52:18;;;;;;;1.60;1.27;;;16.70;95.50;;;;;;5080337;28;20465;-65
2022/06/15 03:54:49;;;;;;;3.30;1.87;;;16.60;96.20;;;;;;5079605;28;20487;-66
2022/06/15 03:57:21;;;;;;;1.67;1.57;;;16.50;96.10;;;;;;5080501;28;20803;-67
2022/06/15 03:59:53;;;;;;;2.30;1.87;;;16.40;96.40;;;;;;5081594;28;20762;-65
2022/06/15 04:02:29;;;;;;;1.60;1.50;;;16.30;96.20;;;;;;5080944;28;20434;-66
2022/06/15 04:05:02;;;;;;;2.33;1.90;;;16.20;96.50;;;;;;5080146;28;20488;-68
2022/06/15 04:10:20;;;;;;;1.97;1.53;;;15.90;97.50;;;;;;5079359;28;20488;-66
2022/06/15 04:12:51;;;;;;;2.67;2.00;;;15.80;98.30;;;;;;5080464;28;20497;-66
2022/06/15 04:15:22;;;;;;;2.20;2.00;;;15.70;98.50;;;;;;5079964;28;20479;-66
2022/06/15 04:17:53;;;;;;;2.57;1.50;;;15.60;99.20;;;;;;5076911;28;20822;-64
2022/06/15 04:20:33;;;;;;;2.17;1.67;;;15.50;99.00;;;;;;5080263;28;20467;-64
2022/06/15 04:23:12;;;;;;;1.87;1.77;;;15.50;98.70;;;;;;5080658;28;20429;-64
2022/06/15 04:25:48;;;;;;;2.43;1.50;;;15.40;99.30;;;;;;5080221;28;20451;-65
2022/06/15 04:28:21;;;;;;;1.90;1.80;;;15.40;99.60;;;;;;5080691;28;20451;-65
2022/06/15 04:30:55;;;;;;;1.70;1.60;;;15.40;99.90;;;;;;5080971;28;21012;-66
2022/06/15 04:33:28;;;;;;;1.43;1.13;;;15.20;99.90;;;;;;5081901;28;20456;-65
2022/06/15 04:36:01;;;;;;;2.30;1.43;;;15.10;99.90;;;;;;5079765;28;20622;-66
2022/06/15 04:38:34;;;;;;;1.60;1.50;;;14.90;99.90;;;;;;5081173;28;20455;-65
2022/06/15 04:41:05;;;;;;;3.20;2.30;;;14.90;99.90;;;;;;5079773;28;20536;-65
2022/06/15 04:43:36;;;;;;;2.17;1.97;;;14.80;99.90;;;;;;5084015;28;20508;-65
2022/06/15 04:46:07;;;;;;;2.57;1.67;;;14.80;99.90;;;;;;5084380;28;20574;-65
2022/06/15 04:48:38;;;;;;;2.00;1.80;;;14.80;99.90;;;;;;5085134;28;20955;-65
2022/06/15 04:51:17;;;;;;;2.17;1.97;;;14.70;99.90;;;;;;5083840;28;20464;-64
2022/06/15 04:53:53;;;;;;;2.83;2.17;;;14.70;99.90;;;;;;5083854;28;20931;-64
2022/06/15 04:56:25;;;;;;;4.70;1.73;;;14.60;99.90;;;;;;5081017;28;20456;-65
2022/06/15 04:58:56;;;;;;;1.83;1.63;;;14.50;99.90;;;;;;5068716;28;20452;-65
2022/06/15 05:01:26;;;;;;;2.97;2.17;;;14.40;99.90;;;;;;5084040;28;20446;-64
2022/06/15 05:03:57;;;;;;;2.70;1.70;;;14.40;99.90;;;;;;5084795;28;20515;-65
2022/06/15 05:06:36;;;;;;;2.37;2.00;;;14.20;99.90;;;;;;5084155;28;20483;-65
2022/06/15 05:09:09;;;;;;;2.73;1.80;;;14.10;99.90;;;;;;5081758;28;20471;-64
2022/06/15 05:11:40;;;;;;;3.03;1.90;;;14.00;99.90;;;;;;5080099;28;20486;-65
2022/06/15 05:14:11;;;;;;;2.50;1.80;;;14.00;99.90;;;;;;5083643;28;20962;-65
2022/06/15 05:16:43;;;;;;;1.60;1.50;;;14.00;99.90;;;;;;5081600;28;20617;-65
2022/06/15 05:19:14;;;;;;;1.60;1.50;;;14.00;99.90;;;;;;5082741;28;20498;-64
2022/06/15 05:21:50;;;;;;;2.30;1.73;;;14.00;99.90;;;;;;5080991;28;20464;-64
2022/06/15 05:24:21;;;;;;;1.33;1.23;;;14.10;99.90;;;;;;5083686;28;20459;-65
2022/06/15 05:26:51;;;;;;;2.10;1.63;;;14.00;99.90;;;;;;5083384;28;20462;-65
2022/06/15 05:29:22;;;;;;;2.93;1.53;;;14.00;99.90;;;;;;5084205;28;21066;-65
2022/06/15 05:31:53;;;;;;;1.40;1.30;;;14.00;99.90;;;;;;5083523;28;20451;-65
2022/06/15 05:34:34;;;;;;;2.03;1.40;;;14.00;99.90;;;;;;5083221;28;20509;-64
2022/06/15 05:37:06;;;;;;;2.00;1.43;;;13.90;99.90;;;;;;5082468;28;20488;-68
2022/06/15 05:39:38;;;;;;;1.57;1.47;;;13.90;99.90;;;;;;5083013;28;20579;-64
2022/06/15 05:42:09;;;;;;;1.70;1.20;;;13.90;99.90;;;;;;5078560;28;21086;-65
2022/06/15 05:44:50;;;;;;;1.70;1.23;;;13.90;99.90;;;;;;5082808;28;20981;-65
2022/06/15 05:47:22;;;;;;;1.17;0.97;;;13.80;99.90;;;;;;5083176;28;20459;-65
2022/06/15 05:49:53;;;;;;;2.17;1.60;;;13.70;99.90;;;;;;5082878;28;20456;-65
2022/06/15 05:52:26;;;;;;;2.50;1.43;;;13.70;99.90;;;;;;5084086;28;20466;-65
2022/06/15 05:54:58;;;;;;;1.10;1.00;;;13.70;99.90;;;;;;5070012;28;20498;-65
2022/06/15 05:57:34;;;;;;;1.63;1.47;;;13.70;99.90;;;;;;5082697;28;20483;-64
2022/06/15 06:00:09;;;;;;;1.03;0.93;;;13.60;99.90;;;;;;5071816;28;20455;-65
2022/06/15 06:02:40;;;;;;;1.00;0.90;;;13.60;99.90;;;;;;5093553;28;20446;-65
2022/06/15 06:05:14;;;;;;;1.40;1.30;;;13.60;99.90;;;;;;5070756;28;20521;-65
2022/06/15 06:07:46;;;;;;;1.23;1.13;;;13.50;99.90;;;;;;5080255;28;20469;-64
2022/06/15 06:10:18;;;;;;;1.60;1.33;;;13.50;99.90;;;;;;5081716;28;20467;-65
2022/06/15 06:12:51;;;;;;;2.00;1.63;;;13.40;99.90;;;;;;5081441;28;20553;-64
2022/06/15 06:15:22;;;;;;;1.50;1.20;;;13.40;99.90;;;;;;5081474;28;20518;-64
2022/06/15 06:17:56;;;;;;;1.17;1.00;;;13.30;99.90;;;;;;5082430;28;20470;-64
2022/06/15 06:20:26;;;;;;;2.67;1.30;;;13.20;99.90;;;;;;5082593;28;20479;-65
2022/06/15 06:22:59;;;;;;;1.00;0.90;;;13.20;99.90;;;;;;5083469;28;20451;-64
2022/06/15 06:25:29;;;;;;;1.90;1.33;;;13.20;99.90;;;;;;5081781;28;20466;-64
2022/06/15 06:28:00;;;;;;;2.40;1.40;;;13.10;99.90;;;;;;5082341;28;20551;-64
2022/06/15 06:30:31;;;;;;;3.10;1.40;;;13.10;99.90;;;;;;5082653;28;20469;-64
2022/06/15 06:33:02;;;;;;;1.50;1.40;;;13.00;99.90;;;;;;5081858;28;20471;-64
2022/06/15 06:35:33;;;;;;;1.80;1.00;;;13.00;99.90;;;;;;5080592;28;20501;-64
2022/06/15 06:38:05;;;;;;;0.97;0.90;;;12.90;99.90;;;;;;5079273;28;20458;-64
2022/06/15 06:40:37;;;;;;;1.00;0.90;;;12.90;99.90;;;;;;5079364;28;20467;-64
2022/06/15 06:43:08;;;;;;;1.57;1.23;;;12.90;99.90;;;;;;5081728;28;20521;-64
2022/06/15 06:45:38;;;;;;;1.27;1.17;;;12.90;99.90;;;;;;5081105;28;20463;-64
2022/06/15 06:48:10;;;;;;;1.43;1.10;;;12.90;99.90;;;;;;5080169;28;20490;-65
2022/06/15 06:50:42;;;;;;;1.13;0.90;;;12.90;99.90;;;;;;5082201;28;20484;-64
2022/06/15 06:53:16;;;;;;;0.97;0.73;;;13.00;99.90;;;;;;5079838;28;20477;-64
2022/06/15 06:55:47;;;;;;;2.67;1.33;;;13.00;99.90;;;;;;5077853;28;20549;-64
2022/06/15 06:58:17;;;;;;;1.37;0.97;;;12.90;99.90;;;;;;5080818;28;20578;-64
2022/06/15 07:00:50;;;;;;;2.60;0.97;;;12.80;99.90;;;;;;5080851;28;20463;-64
2022/06/15 07:03:21;;;;;;;1.13;0.73;;;12.80;99.90;;;;;;5081210;28;20542;-64
2022/06/15 07:06:01;;;;;;;1.77;1.17;;;12.70;99.90;;;;;;5080673;28;20482;-63
2022/06/15 07:08:37;;;;;;;1.57;1.47;;;12.70;99.90;;;;;;5081208;28;20459;-64
2022/06/15 07:11:12;;;;;;;1.93;0.80;;;12.60;99.90;;;;;;5079984;28;20558;-64
2022/06/15 07:13:43;;;;;;;1.60;0.87;;;12.60;99.90;;;;;;5080568;28;20545;-64
2022/06/15 07:16:18;;;;;;;1.73;0.90;;;12.50;99.90;;;;;;5079478;28;20506;-64
2022/06/15 07:18:49;;;;;;;2.00;1.10;;;12.40;99.90;;;;;;5080984;28;20552;-63
2022/06/15 07:21:22;;;;;;;1.00;0.90;;;12.40;99.90;;;;;;5081050;28;20546;-64
2022/06/15 07:23:58;;;;;;;1.10;0.77;;;12.30;99.90;;;;;;5080072;28;20466;-64
2022/06/15 07:26:31;;;;;;;1.30;0.80;;;12.30;99.90;;;;;;5079456;28;20459;-64
2022/06/15 07:29:02;;;;;;;1.33;1.10;;;12.20;99.90;;;;;;5080266;28;20459;-64
2022/06/15 07:31:36;;;;;;;1.33;1.00;;;12.20;99.90;;;;;;5080545;28;20463;-64
2022/06/15 07:34:07;;;;;;;1.10;0.90;;;12.20;99.90;;;;;;5080737;28;20473;-64
2022/06/15 07:36:39;;;;;;;1.40;0.90;;;12.20;99.90;;;;;;5080873;28;20495;-64
2022/06/15 07:39:12;;;;;;;1.13;1.03;;;12.20;99.90;;;;;;5082136;28;20436;-64
2022/06/15 07:41:43;;;;;;;3.93;1.27;;;12.20;99.90;;;;;;5080466;28;20466;-64
2022/06/15 07:44:14;;;;;;;0.80;0.73;;;12.20;99.90;;;;;;5081790;28;20458;-64
2022/06/15 07:46:45;;;;;;;1.07;0.97;;;12.10;99.90;;;;;;5079947;28;20541;-64
2022/06/15 07:52:05;;;;;;;2.00;1.17;;;12.10;99.90;;;;;;5080119;28;20456;-64
2022/06/15 07:54:38;;;;;;;0.70;0.63;;;12.10;99.90;;;;;;5081532;28;20457;-64
2022/06/15 07:57:09;;;;;;;1.60;1.10;;;12.00;99.90;;;;;;5079470;28;20495;-64
2022/06/15 07:59:40;;;;;;;1.50;0.83;;;12.10;99.90;;;;;;5080688;28;20459;-64
2022/06/15 08:02:11;;;;;;;2.10;0.90;;;12.10;99.90;;;;;;5079812;28;20455;-64
2022/06/15 08:04:45;;;;;;;1.27;0.87;;;12.10;99.90;;;;;;5080975;28;20475;-64
2022/06/15 08:07:18;;;;;;;1.37;1.27;;;12.20;99.90;;;;;;5080459;28;20481;-64
2022/06/15 08:09:50;;;;;;;1.23;0.70;;;12.10;99.90;;;;;;5066622;28;20459;-64
2022/06/15 08:12:23;;;;;;;0.60;0.60;;;12.10;99.90;;;;;;5080513;28;20463;-63
2022/06/15 08:14:56;;;;;;;1.17;0.93;;;12.00;99.90;;;;;;5079937;28;20464;-62
2022/06/15 08:17:29;;;;;;;0.93;0.70;;;12.00;99.90;;;;;;5080858;28;22050;-64
2022/06/15 08:20:11;;;;;;;1.33;0.93;;;12.00;99.90;;;;;;5076555;28;20887;-64
2022/06/15 08:22:44;;;;;;;2.07;0.90;;;11.90;99.90;;;;;;5081441;28;20466;-62
2022/06/15 08:25:20;;;;;;;0.73;0.73;;;12.00;99.90;;;;;;5083515;28;20459;-63
2022/06/15 08:27:52;;;;;;;1.00;0.90;;;12.00;99.90;;;;;;5084018;28;20459;-62
2022/06/15 08:30:23;;;;;;;3.13;1.07;;;11.90;99.90;;;;;;5085062;28;20459;-62
2022/06/15 08:32:54;;;;;;;0.70;0.70;;;11.80;99.90;;;;;;5085882;28;20460;-62
2022/06/15 08:35:25;;;;;;;0.80;0.80;;;11.70;99.90;;;;;;5083549;28;20557;-63
2022/06/15 08:37:58;;;;;;;1.07;0.73;;;11.70;99.90;;;;;;5083435;28;20511;-63
2022/06/15 08:40:34;;;;;;;1.47;0.70;;;11.70;99.90;;;;;;5083954;28;20459;-63
2022/06/15 08:43:12;;;;;;;1.10;1.00;;;11.60;99.90;;;;;;5083790;28;20949;-63
2022/06/15 08:45:47;;;;;;;1.40;1.20;;;11.60;99.90;;;;;;5081894;28;20467;-63
2022/06/15 08:48:51;;;;;;;1.47;1.20;;;11.60;99.90;;;;;;5078842;28;20463;-63
2022/06/15 08:51:29;;;;;;;1.77;1.17;;;11.50;99.90;;;;;;5083786;28;21287;-62
2022/06/15 08:54:05;;;;;;;2.80;1.17;;;11.40;99.90;;;;;;5084258;28;20452;-62
2022/06/15 08:56:41;;;;;;;1.30;0.80;;;11.50;99.90;;;;;;5082634;28;20554;-62
2022/06/15 08:59:21;;;;;;;1.57;1.17;;;11.50;99.90;;;;;;5083347;28;20466;-63
2022/06/15 09:02:01;;;;;;;1.53;1.07;;;11.50;99.90;;;;;;5076483;28;20530;-63
2022/06/15 09:04:47;;;;;;;3.70;1.10;;;11.50;99.90;;;;;;5081936;28;20453;-62
2022/06/15 09:07:38;;;;;;;2.20;1.27;;;11.50;99.90;;;;;;5083623;28;20471;-62
2022/06/15 09:10:28;;;;;;;2.07;1.47;;;11.40;99.90;;;;;;5057759;28;20482;-62
2022/06/15 09:13:13;;;;;;;1.20;1.10;;;11.50;99.90;;;;;;5084183;28;20452;-62
2022/06/15 09:15:54;;;;;;;1.30;1.00;;;11.40;99.90;;;;;;5082070;28;20479;-62
2022/06/15 09:18:31;;;;;;;1.50;1.10;;;11.40;99.90;;;;;;5083588;28;20495;-62
2022/06/15 09:21:07;;;;;;;1.10;1.00;;;11.40;99.90;;;;;;5043351;28;20818;-62
2022/06/15 09:23:43;;;;;;;0.90;0.90;;;11.40;99.90;;;;;;5043898;28;20472;-62
2022/06/15 09:26:22;;;;;;;1.23;0.80;;;11.30;99.90;;;;;;5042331;28;20479;-63
2022/06/15 09:28:59;;;;;;;1.57;1.20;;;11.30;99.90;;;;;;5041320;28;20535;-62
2022/06/15 09:31:37;;;;;;;2.00;1.23;;;11.30;99.90;;;;;;5040647;28;20471;-62
2022/06/15 09:34:10;;;;;;;1.30;1.20;;;11.40;99.90;;;;;;5042151;28;20473;-62
2022/06/15 09:36:48;;;;;;;2.30;1.60;;;11.40;99.90;;;;;;5040728;28;20471;-62
2022/06/15 09:39:20;;;;;;;1.23;1.10;;;11.40;99.90;;;;;;5040023;28;20476;-62
2022/06/15 09:41:56;;;;;;;1.73;1.10;;;11.40;99.90;;;;;;5042662;28;20568;-63
2022/06/15 09:44:40;;;;;;;1.70;1.10;;;11.40;99.90;;;;;;5043421;28;20472;-62
2022/06/15 09:47:21;;;;;;;1.33;1.07;;;11.30;99.90;;;;;;5040685;28;20453;-62
2022/06/15 09:50:01;;;;;;;2.00;1.43;;;11.30;99.90;;;;;;5041047;28;20465;-62
2022/06/15 09:52:42;;;;;;;2.07;1.73;;;11.40;99.90;;;;;;5042833;28;20480;-62
2022/06/15 09:55:19;;;;;;;1.40;1.30;;;11.40;99.90;;;;;;5039955;28;20469;-63
2022/06/15 09:57:54;;;;;;;1.10;1.00;;;11.40;99.90;;;;;;5042297;28;20560;-62
2022/06/15 10:00:31;;;;;;;3.53;1.10;;;11.40;99.90;;;;;;5042776;28;20468;-62
2022/06/15 10:03:05;;;;;;;2.20;1.13;;;11.40;99.90;;;;;;5041501;28;21066;-63
2022/06/15 10:05:39;;;;;;;1.03;0.80;;;11.40;99.90;;;;;;5042532;28;20452;-62
2022/06/15 10:08:13;;;;;;;2.67;1.60;;;11.50;99.90;;;;;;5042617;28;20475;-63
2022/06/15 10:10:53;;;;;;;2.10;1.00;;;11.40;99.90;;;;;;5042058;28;20492;-63
2022/06/15 10:13:31;;;;;;;1.07;1.00;;;11.30;99.90;;;;;;5036558;28;20460;-63
2022/06/15 10:16:18;;;;;;;1.00;0.90;;;11.30;99.90;;;;;;5040005;28;20915;-62
2022/06/15 10:18:51;;;;;;;1.03;1.00;;;11.30;99.90;;;;;;5045074;28;20556;-62
2022/06/15 10:21:25;;;;;;;1.57;0.97;;;11.20;99.90;;;;;;5081997;28;20838;-63
2022/06/15 10:24:05;;;;;;;1.20;1.00;;;11.20;99.90;;;;;;5075455;28;20462;-63
2022/06/15 10:26:41;;;;;;;1.57;1.10;;;11.20;99.90;;;;;;5081951;28;20451;-62
2022/06/15 10:29:30;;;;;;;1.13;0.97;;;11.20;99.90;;;;;;5080932;28;20543;-63
2022/06/15 10:32:22;;;;;;;3.63;1.80;;;11.40;99.90;;;;;;5082504;28;20511;-63
2022/06/15 10:35:07;;;;;;;1.67;1.57;;;11.40;99.90;;;;;;5081770;28;20471;-63
2022/06/15 10:37:42;;;;;;;1.73;1.20;;;11.50;99.90;;;;;;5081939;28;20510;-63
2022/06/15 10:40:25;;;;;;;2.70;1.40;;;11.50;99.90;;;;;;5079543;28;20466;-62
2022/06/15 10:43:03;;;;;;;2.70;1.60;;;11.50;99.90;;;;;;5081195;28;20458;-63
2022/06/15 10:45:37;;;;;;;1.37;1.27;;;11.60;99.90;;;;;;5080278;28;20465;-63
2022/06/15 10:48:16;;;;;;;2.07;1.60;;;11.60;99.90;;;;;;5077913;28;20478;-62
2022/06/15 10:50:53;;;;;;;2.27;1.90;;;11.50;99.90;;;;;;5080807;28;20463;-62
2022/06/15 10:53:42;;;;;;;2.53;1.77;;;11.60;99.90;;;;;;5081710;28;20456;-62
2022/06/15 11:02:32;;;;;;;2.53;1.10;;;11.70;99.90;;;;;;4999307;28;20473;-62
2022/06/15 11:05:13;;;;;;;1.97;1.40;;;11.70;99.90;;;;;;4999707;28;20459;-62
2022/06/15 11:07:47;;;;;;;3.13;1.53;;;11.60;99.90;;;;;;5000341;28;20524;-62
2022/06/15 11:10:28;;;;;;;1.90;1.50;;;11.70;99.90;;;;;;4998589;28;20492;-62
2022/06/15 11:13:02;;;;;;;1.87;1.63;;;11.70;99.90;;;;;;4999071;28;20459;-62
2022/06/15 11:18:33;;;;;;;3.20;1.87;;;11.60;99.90;;;;;;4999501;28;20483;-62
2022/06/15 11:21:09;;;;;;;1.67;1.37;;;11.70;99.90;;;;;;4997918;28;20570;-62
2022/06/15 11:23:49;;;;;;;2.40;1.33;;;11.70;99.90;;;;;;4998883;28;20469;-62
2022/06/15 11:29:43;;;;;;;1.90;1.57;;;11.70;99.90;;;;;;4958646;28;20503;-62
2022/06/15 11:32:37;;;;;;;1.83;1.73;;;11.70;99.90;;;;;;4960911;28;20456;-62
2022/06/15 11:35:25;;;;;;;2.27;1.60;;;11.70;99.90;;;;;;5017815;28;20476;-63
2022/06/15 11:38:04;;;;;;;4.60;1.50;;;11.50;99.90;;;;;;5016272;28;20485;-63
2022/06/15 11:40:43;;;;;;;2.53;1.40;;;11.50;99.90;;;;;;5018055;28;20485;-63
2022/06/15 11:43:19;;;;;;;2.87;1.70;;;11.50;99.90;;;;;;5004949;28;20445;-62
2022/06/15 11:46:12;;;;;;;1.50;1.40;;;11.50;99.90;;;;;;5016107;28;20453;-62
2022/06/15 11:48:55;;;;;;;1.70;1.30;;;11.50;99.90;;;;;;5019032;28;20468;-63
2022/06/15 11:51:38;;;;;;;1.43;1.33;;;11.50;99.90;;;;;;5013935;28;20465;-63
2022/06/15 11:54:24;;;;;;;2.13;1.67;;;11.60;99.90;;;;;;5022399;28;20481;-62
2022/06/15 11:57:01;;;;;;;2.13;1.80;;;11.50;99.90;;;;;;5022156;28;20634;-62
2022/06/15 11:59:40;;;;;;;2.77;1.90;;;11.40;99.90;;;;;;5023403;28;20489;-62
2022/06/15 12:02:29;;;;;;;2.20;2.00;;;11.40;99.90;;;;;;5022144;28;20465;-62
2022/06/15 12:05:17;;;;;;;1.97;1.70;;;11.30;99.90;;;;;;5085159;28;20455;-62
2022/06/15 12:07:59;;;;;;;2.13;1.93;;;11.20;99.90;;;;;;5085146;28;20462;-62
2022/06/15 12:10:44;;;;;;;1.83;1.53;;;11.10;99.90;;;;;;5084131;28;20485;-62
2022/06/15 12:13:25;;;;;;;2.40;1.77;;;11.10;99.90;;;;;;5085160;28;20455;-63
2022/06/15 12:16:06;;;;;;;3.50;1.80;;;10.90;99.90;;;;;;5081252;28;20486;-63
2022/06/15 12:18:53;;;;;;;1.73;1.50;;;10.90;99.90;;;;;;5084882;28;20500;-63
2022/06/15 12:21:34;;;;;;;2.00;1.70;;;10.90;99.90;;;;;;5083070;28;20469;-62
2022/06/15 12:24:13;;;;;;;1.10;1.03;;;10.90;99.90;;;;;;5084717;28;20462;-62
2022/06/15 12:27:01;;;;;;;2.67;1.30;;;11.00;99.90;;;;;;5083402;28;20949;-63
2022/06/15 12:29:44;;;;;;;3.30;1.50;;;11.00;99.90;;;;;;5082704;28;20463;-63
2022/06/15 12:32:33;;;;;;;1.93;1.50;;;11.00;99.90;;;;;;5083961;28;20465;-63
2022/06/15 12:35:16;;;;;;;2.90;1.67;;;11.00;99.90;;;;;;5083868;28;20544;-63
2022/06/15 12:38:10;;;;;;;2.27;1.60;;;11.00;99.90;;;;;;5085496;28;20903;-62
2022/06/15 12:40:43;;;;;;;1.77;1.43;;;10.90;99.90;;;;;;5082979;28;20465;-62
2022/06/15 12:43:24;;;;;;;2.00;1.30;;;10.80;99.90;;;;;;5084192;28;20463;-63
2022/06/15 12:46:02;;;;;;;2.40;1.97;;;10.80;99.90;;;;;;5083876;28;20459;-63
2022/06/15 12:48:45;;;;;;;1.70;1.37;;;10.80;99.90;;;;;;5083128;28;20645;-63
2022/06/15 12:51:26;;;;;;;2.10;1.70;;;10.80;99.90;;;;;;5082023;28;20467;-63
2022/06/15 12:54:09;;;;;;;1.73;1.57;;;10.90;99.90;;;;;;5084147;28;20459;-63
2022/06/15 12:56:46;;;;;;;2.90;1.60;;;10.90;99.90;;;;;;5079567;28;20451;-63
2022/06/15 12:59:42;;;;;;;3.50;2.10;;;10.90;99.90;;;;;;5083725;28;20500;-63
2022/06/15 13:02:21;;;;;;;2.07;1.87;;;10.80;99.90;;;;;;5083204;28;20475;-63
2022/06/15 13:05:06;;;;;;;2.20;2.00;;;10.90;99.90;;;;;;5082901;28;20463;-63
2022/06/15 13:07:39;;;;;;;3.03;1.70;;;10.90;99.90;;;;;;5083571;28;20469;-63
2022/06/15 13:10:24;;;;;;;2.90;2.27;;;10.90;99.90;;;;;;5082614;28;20582;-62
2022/06/15 13:12:59;;;;;;;2.07;1.83;;;11.10;99.90;;;;;;5082907;28;20478;-63
2022/06/15 13:15:54;;;;;;;2.60;1.77;;;11.20;99.90;;;;;;5083231;28;20546;-63
2022/06/15 13:18:46;;;;;;;3.27;1.87;;;11.30;99.90;;;;;;5083168;28;20478;-62
2022/06/15 13:21:18;;;;;;;1.60;1.50;;;11.30;99.90;;;;;;5082374;28;20467;-63
2022/06/15 13:24:00;;;;;;;2.40;2.20;;;11.50;99.90;;;;;;5085894;28;20456;-63
2022/06/15 13:26:54;;;;;;;6.43;2.53;;;11.60;99.90;;;;;;5082406;28;20448;-63
2022/06/15 13:29:29;;;;;;;2.53;1.70;;;11.70;99.90;;;;;;5076961;28;20436;-63
2022/06/15 13:32:03;;;;;;;3.40;2.40;;;11.90;99.90;;;;;;5081472;28;20477;-63
2022/06/15 13:34:48;;;;;;;3.87;1.90;;;11.90;99.90;;;;;;5076856;28;20461;-63
2022/06/15 13:37:28;;;;;;;3.20;1.97;;;12.00;99.90;;;;;;5082848;28;20470;-63
2022/06/15 13:40:01;;;;;;;4.30;2.60;;;12.20;99.90;;;;;;5080652;28;20844;-63
2022/06/15 13:42:38;;;;;;;2.37;2.17;;;12.20;99.90;;;;;;5083406;28;20480;-64
2022/06/15 13:45:13;;;;;;;2.83;2.57;;;12.30;99.90;;;;;;5077728;28;20455;-64
2022/06/15 13:47:56;;;;;;;3.57;2.30;;;12.40;99.90;;;;;;5079366;28;20442;-64
2022/06/15 13:50:34;;;;;;;3.67;1.90;;;12.50;99.90;;;;;;5077319;28;20466;-64
2022/06/15 13:53:09;;;;;;;3.43;2.20;;;12.50;99.90;;;;;;5082977;28;20443;-64